Time;durP1;ratioP1;P1;durP2;ratioP2;P2;SDS_P1;SDS_P2;PMS_P1;PMS_P2;Temp;Humidity;BMP_temperature;BMP_pressure;BME280_temperature;BME280_humidity;BME280_pressure;Samples;Min_cycle;Max_cycle;Signal;HPM_P1;HPM_P2
2022/02/03 00:00:31;;;;;;;820.90;666.97;;;8.60;99.90;;;;;;6166708;23;20733;-83
2022/02/03 00:03:08;;;;;;;839.37;662.60;;;8.70;99.90;;;;;;6164975;23;20404;-83
2022/02/03 00:08:52;;;;;;;835.97;670.27;;;8.80;99.90;;;;;;6161830;23;20406;-83
2022/02/03 00:11:30;;;;;;;819.93;668.43;;;8.70;99.90;;;;;;6162179;23;20394;-83
2022/02/03 00:25:46;;;;;;;828.23;672.80;;;8.70;99.90;;;;;;6159347;23;20469;-83
2022/02/03 00:28:21;;;;;;;840.07;674.03;;;8.70;99.90;;;;;;6161629;23;20471;-82
2022/02/03 00:31:08;;;;;;;837.13;676.70;;;8.70;99.90;;;;;;6163780;23;20398;-83
2022/02/03 00:33:50;;;;;;;822.53;669.17;;;8.70;99.90;;;;;;6163828;23;20398;-83
2022/02/03 00:36:23;;;;;;;824.30;670.53;;;8.80;99.90;;;;;;6163874;23;20401;-83
2022/02/03 00:50:24;;;;;;;815.37;684.97;;;8.90;99.90;;;;;;6148245;23;20405;-83
2022/02/03 00:53:02;;;;;;;811.40;681.87;;;8.70;99.90;;;;;;6164038;23;20399;-83
2022/02/03 00:55:36;;;;;;;819.23;685.50;;;8.80;99.90;;;;;;6163137;23;20434;-83
2022/02/03 00:58:11;;;;;;;810.97;680.00;;;8.80;99.90;;;;;;6161635;23;20393;-83
2022/02/03 01:00:40;;;;;;;816.60;677.67;;;8.70;99.90;;;;;;6161609;23;20451;-83
2022/02/03 01:03:20;;;;;;;800.93;662.60;;;8.70;99.90;;;;;;6162054;23;20438;-83
2022/02/03 01:09:06;;;;;;;814.67;666.40;;;8.70;99.90;;;;;;6158373;23;20411;-83
2022/02/03 01:11:45;;;;;;;805.33;663.40;;;8.70;99.90;;;;;;6163700;23;20394;-84
2022/02/03 01:14:26;;;;;;;806.07;664.53;;;8.60;99.90;;;;;;6164319;23;20444;-83
2022/02/03 01:20:17;;;;;;;807.53;667.07;;;8.70;99.90;;;;;;6154695;23;20442;-83
2022/02/03 01:34:28;;;;;;;804.30;679.77;;;8.60;99.90;;;;;;6163436;23;20429;-83
2022/02/03 01:37:22;;;;;;;802.53;647.60;;;8.70;99.90;;;;;;6178815;23;20809;-83
2022/02/03 01:43:28;;;;;;;802.27;661.37;;;8.60;99.90;;;;;;6176632;23;20389;-83
2022/02/03 01:49:38;;;;;;;786.80;665.37;;;8.70;99.90;;;;;;6181067;23;20453;-84
2022/02/03 01:52:23;;;;;;;793.93;670.63;;;8.80;99.90;;;;;;6170138;23;20418;-83
2022/02/03 01:55:02;;;;;;;789.47;652.27;;;8.80;99.90;;;;;;6180409;23;20426;-84
2022/02/03 01:57:42;;;;;;;781.60;657.10;;;8.80;99.90;;;;;;6168333;23;20398;-84
2022/02/03 02:03:19;;;;;;;772.00;650.20;;;8.80;99.90;;;;;;6163598;23;20422;-84
2022/02/03 02:06:24;;;;;;;776.13;656.53;;;8.80;99.90;;;;;;6163959;23;20437;-84
2022/02/03 02:09:09;;;;;;;769.87;664.50;;;8.80;99.90;;;;;;6162785;23;20437;-83
2022/02/03 02:12:02;;;;;;;755.17;656.07;;;8.90;99.90;;;;;;6168692;23;20394;-83
2022/02/03 02:38:39;;;;;;;;;;;;;;;;;;;;;
2022/02/03 02:44:16;;;;;;;755.00;675.27;;;8.80;99.90;;;;;;5142518;27;20466;-83
2022/02/03 02:46:55;;;;;;;764.47;687.27;;;8.90;99.90;;;;;;5121217;28;20501;-84
2022/02/03 02:49:39;;;;;;;758.40;681.40;;;8.90;99.90;;;;;;5123382;28;20974;-83
2022/02/03 02:52:14;;;;;;;748.37;672.43;;;8.80;99.90;;;;;;5141851;27;20563;-83
2022/02/03 02:54:59;;;;;;;746.70;670.67;;;8.80;99.90;;;;;;5139489;27;20527;-84
2022/02/03 03:04:30;;;;;;;741.10;668.00;;;8.90;99.90;;;;;;5128749;28;20837;-84
2022/02/03 03:30:41;;;;;;;723.47;661.37;;;8.70;99.90;;;;;;5107705;28;20440;-82
2022/02/03 03:33:55;;;;;;;730.97;668.67;;;8.60;99.90;;;;;;5107679;28;20465;-83
2022/02/03 03:36:37;;;;;;;731.60;669.73;;;8.60;99.90;;;;;;5095427;28;20486;-83
2022/02/03 03:39:27;;;;;;;739.60;680.17;;;8.70;99.90;;;;;;5106621;28;20511;-83
2022/02/03 03:42:15;;;;;;;;;;;;;;;;;;;;;
2022/02/03 03:44:56;;;;;;;746.30;689.00;;;8.60;99.90;;;;;;5118151;28;20477;-83
2022/02/03 03:47:27;;;;;;;742.27;685.87;;;8.50;99.90;;;;;;5125675;28;20444;-83
2022/02/03 03:50:09;;;;;;;737.27;681.57;;;8.50;99.90;;;;;;5127754;28;20473;-83
2022/02/03 03:52:46;;;;;;;738.37;684.17;;;8.40;99.90;;;;;;5130748;28;20500;-82
2022/02/03 03:55:24;;;;;;;743.83;692.83;;;8.50;99.90;;;;;;5121415;28;20471;-79
2022/02/03 03:58:07;;;;;;;742.67;694.73;;;8.50;99.90;;;;;;5119428;28;20475;-83
2022/02/03 04:00:59;;;;;;;730.77;684.80;;;8.50;99.90;;;;;;5118685;28;20804;-83
2022/02/03 04:30:05;;;;;;;663.87;631.07;;;8.60;99.90;;;;;;5122516;28;20570;-83
2022/02/03 04:33:09;;;;;;;669.10;635.53;;;8.60;99.90;;;;;;5121163;28;20838;-83
2022/02/03 04:38:44;;;;;;;687.97;651.40;;;8.60;99.90;;;;;;5094019;27;20991;-83
2022/02/03 04:41:46;;;;;;;690.70;653.90;;;8.60;99.90;;;;;;5119295;28;20581;-83
2022/02/03 04:59:42;;;;;;;715.60;669.20;;;8.40;99.90;;;;;;5107964;28;20437;-82
2022/02/03 05:02:35;;;;;;;714.60;666.50;;;8.40;99.90;;;;;;5119407;28;20520;-82
2022/02/03 05:05:16;;;;;;;712.30;664.00;;;8.40;99.90;;;;;;5118697;28;20482;-83
2022/02/03 05:08:21;;;;;;;719.67;668.50;;;8.50;99.90;;;;;;5120076;28;20440;-83
2022/02/03 05:11:12;;;;;;;711.43;660.20;;;8.40;99.90;;;;;;5117877;28;20441;-83
2022/02/03 05:14:23;;;;;;;713.67;661.77;;;8.40;99.90;;;;;;5119343;28;20445;-82
2022/02/03 05:23:35;;;;;;;712.57;656.70;;;8.30;99.90;;;;;;5123020;28;20440;-83
2022/02/03 05:26:31;;;;;;;711.87;655.37;;;8.30;99.90;;;;;;5117641;28;20538;-82
2022/02/03 05:32:38;;;;;;;714.70;656.70;;;8.30;99.90;;;;;;5117395;28;20447;-80
2022/02/03 05:35:21;;;;;;;715.87;657.60;;;8.20;99.90;;;;;;5116104;28;20464;-82
2022/02/03 05:44:07;;;;;;;718.80;657.70;;;8.10;99.90;;;;;;5115880;28;20450;-82
2022/02/03 05:46:56;;;;;;;716.93;655.00;;;8.20;99.90;;;;;;5114804;28;20480;-82
2022/02/03 06:01:22;;;;;;;724.57;656.37;;;8.00;99.90;;;;;;5114535;28;20490;-82
2022/02/03 06:06:50;;;;;;;721.43;652.67;;;8.10;99.90;;;;;;5110906;28;20489;-82
2022/02/03 06:15:00;;;;;;;732.73;661.80;;;8.00;99.90;;;;;;5112384;28;20473;-81
2022/02/03 06:17:37;;;;;;;746.63;676.63;;;7.90;99.90;;;;;;5113281;28;20479;-83
2022/02/03 06:22:57;;;;;;;723.40;653.27;;;8.00;99.90;;;;;;5118178;28;20478;-80
2022/02/03 06:31:45;;;;;;;733.43;662.47;;;8.10;99.90;;;;;;5114875;28;20448;-83
2022/02/03 06:34:18;;;;;;;730.77;657.87;;;8.10;99.90;;;;;;5115735;28;20465;-83
2022/02/03 06:36:51;;;;;;;729.37;656.20;;;8.10;99.90;;;;;;5115407;28;20514;-84
2022/02/03 06:39:59;;;;;;;742.33;668.47;;;8.10;99.90;;;;;;5115026;28;20903;-83
2022/02/03 06:43:02;;;;;;;735.00;661.10;;;8.00;99.90;;;;;;5115009;28;20513;-83
2022/02/03 06:46:05;;;;;;;730.20;656.90;;;8.00;99.90;;;;;;5115237;28;20482;-84
2022/02/03 06:48:53;;;;;;;727.47;652.53;;;8.00;99.90;;;;;;5094686;28;21032;-83
2022/02/03 06:51:46;;;;;;;739.07;664.40;;;7.90;99.90;;;;;;5098178;28;20445;-83
2022/02/03 06:54:29;;;;;;;732.10;657.53;;;7.90;99.90;;;;;;5113315;28;20461;-84
2022/02/03 06:57:09;;;;;;;755.87;679.67;;;7.90;99.90;;;;;;5113483;28;20548;-83
2022/02/03 06:59:55;;;;;;;751.50;674.87;;;7.90;99.90;;;;;;5113197;28;20452;-83
2022/02/03 07:02:28;;;;;;;779.27;702.40;;;7.90;99.90;;;;;;5114110;28;20827;-84
2022/02/03 07:05:00;;;;;;;738.87;661.97;;;8.00;99.90;;;;;;5116947;28;20853;-83
2022/02/03 07:07:38;;;;;;;718.83;643.07;;;7.90;99.90;;;;;;5117876;28;20464;-83
2022/02/03 07:10:12;;;;;;;726.83;651.13;;;7.90;99.90;;;;;;5118642;28;20448;-83
2022/02/03 07:12:59;;;;;;;735.43;660.40;;;7.90;99.90;;;;;;5118969;28;20481;-83
2022/02/03 07:15:40;;;;;;;733.67;658.67;;;8.00;99.90;;;;;;5115416;28;20513;-84
2022/02/03 07:24:35;;;;;;;744.80;667.93;;;7.90;99.90;;;;;;5054975;28;20550;-84
2022/02/03 07:27:18;;;;;;;759.13;682.03;;;8.00;99.90;;;;;;5114643;28;20445;-83
2022/02/03 07:30:01;;;;;;;764.07;687.43;;;8.00;99.90;;;;;;5117546;28;20790;-83
2022/02/03 07:32:35;;;;;;;766.23;690.93;;;8.00;99.90;;;;;;5115235;28;20447;-84
2022/02/03 07:38:49;;;;;;;769.70;694.83;;;8.00;99.90;;;;;;5110204;28;20556;-82
2022/02/03 07:41:22;;;;;;;766.83;691.27;;;8.10;99.90;;;;;;5102661;28;20457;-84
2022/02/03 07:47:44;;;;;;;761.80;692.40;;;8.20;99.90;;;;;;5119242;28;20502;-84
2022/02/03 07:59:58;;;;;;;;;;;;;;;;;;;;;
2022/02/03 08:09:38;;;;;;;;;;;;;;;;;;;;;
2022/02/03 08:12:40;;;;;;;718.10;662.00;;;8.20;99.90;;;;;;5042829;28;20472;-83
2022/02/03 08:15:28;;;;;;;713.73;658.00;;;8.20;99.90;;;;;;5121304;28;20479;-85
2022/02/03 08:18:29;;;;;;;;;;;;;;;;;;;;;
2022/02/03 08:25:03;;;;;;;;;;;;;;;;;;;;;
2022/02/03 08:27:57;;;;;;;717.83;659.47;;;8.20;99.90;;;;;;5094658;28;20472;-84
2022/02/03 08:37:17;;;;;;;700.63;643.00;;;8.30;99.90;;;;;;5097375;28;20474;-84
2022/02/03 08:40:40;;;;;;;;;;;;;;;;;;;;;
2022/02/03 08:43:52;;;;;;;711.50;652.87;;;8.30;99.90;;;;;;5056903;28;20964;-85
2022/02/03 08:56:42;;;;;;;;;;;;;;;;;;;;;
2022/02/03 09:54:14;;;;;;;700.20;646.50;;;8.20;99.90;;;;;;5094700;28;20437;-83
2022/02/03 09:59:59;;;;;;;;;;;;;;;;;;;;;
2022/02/03 10:02:45;;;;;;;696.27;645.87;;;8.20;99.90;;;;;;5092063;28;20836;-84
2022/02/03 10:05:40;;;;;;;691.90;641.73;;;8.20;99.90;;;;;;5094954;28;20469;-83
2022/02/03 10:11:42;;;;;;;;;;;;;;;;;;;;;
2022/02/03 10:14:55;;;;;;;596.57;568.07;;;8.20;99.90;;;;;;5028928;28;20505;-83
2022/02/03 10:17:51;;;;;;;421.20;405.40;;;8.20;99.90;;;;;;5095098;28;20481;-83
2022/02/03 10:27:08;;;;;;;116.33;111.93;;;8.20;99.90;;;;;;5087585;28;20453;-83
2022/02/03 10:30:08;;;;;;;101.60;97.63;;;8.20;99.90;;;;;;5013053;28;20544;-83
2022/02/03 10:32:59;;;;;;;125.00;120.33;;;8.20;99.90;;;;;;5095175;28;20543;-82
2022/02/03 10:35:40;;;;;;;60.53;58.03;;;8.30;99.90;;;;;;5094910;28;20496;-84
2022/02/03 10:38:44;;;;;;;45.63;43.53;;;8.20;99.90;;;;;;5096047;28;20473;-81
2022/02/03 10:41:56;;;;;;;38.87;36.80;;;8.10;99.90;;;;;;5099625;28;20453;-82
2022/02/03 10:44:39;;;;;;;52.03;49.67;;;8.20;99.90;;;;;;5098684;28;20593;-82
2022/02/03 10:50:39;;;;;;;39.47;37.60;;;8.00;99.90;;;;;;5098045;28;20828;-82
2022/02/03 10:53:46;;;;;;;28.17;26.67;;;8.20;99.90;;;;;;5099277;28;21082;-82
2022/02/03 11:02:34;;;;;;;49.20;47.00;;;8.10;99.90;;;;;;5098881;28;20925;-81
2022/02/03 11:05:26;;;;;;;40.63;38.73;;;8.10;99.90;;;;;;5098847;28;20978;-83
2022/02/03 11:07:59;;;;;;;31.83;30.13;;;8.20;99.90;;;;;;5098314;28;20445;-82
2022/02/03 11:10:31;;;;;;;27.20;25.63;;;8.20;99.90;;;;;;5097953;28;20461;-83
2022/02/03 11:13:01;;;;;;;21.30;20.00;;;8.10;99.90;;;;;;5098940;28;20453;-82
2022/02/03 11:18:51;;;;;;;47.97;45.63;;;8.00;99.90;;;;;;5090888;28;20480;-81
2022/02/03 11:21:26;;;;;;;19.93;18.73;;;8.10;99.90;;;;;;5098414;28;20547;-82
2022/02/03 11:24:05;;;;;;;18.57;17.27;;;8.00;99.90;;;;;;5098388;28;20445;-82
2022/02/03 11:26:42;;;;;;;29.03;27.47;;;8.10;99.90;;;;;;5098641;28;20475;-82
2022/02/03 11:29:41;;;;;;;;;;;;;;;;;;;;;
2022/02/03 11:44:21;;;;;;;40.93;39.03;;;7.90;99.90;;;;;;5092200;28;20450;-84
2022/02/03 11:47:27;;;;;;;40.60;38.40;;;8.00;99.90;;;;;;5098483;28;20496;-82
2022/02/03 11:50:15;;;;;;;55.80;53.40;;;7.90;99.90;;;;;;5097081;28;20934;-85
2022/02/03 11:56:31;;;;;;;58.83;56.07;;;8.00;99.90;;;;;;5055188;28;20558;-82
2022/02/03 11:59:47;;;;;;;67.83;65.03;;;7.80;99.90;;;;;;5097320;28;20542;-82
2022/02/03 12:02:57;;;;;;;65.87;62.90;;;7.80;99.90;;;;;;5097739;28;20446;-82
2022/02/03 12:17:46;;;;;;;43.70;41.53;;;7.80;99.90;;;;;;5080242;28;20476;-83
2022/02/03 12:20:25;;;;;;;60.47;57.87;;;7.90;99.90;;;;;;5098232;28;20529;-83
2022/02/03 12:23:12;;;;;;;75.00;71.70;;;8.00;99.90;;;;;;5098421;28;20445;-84
2022/02/03 12:25:53;;;;;;;65.90;63.03;;;7.90;99.90;;;;;;5097816;28;20564;-82
2022/02/03 12:28:36;;;;;;;49.60;47.30;;;7.80;99.90;;;;;;5097456;28;20445;-84
2022/02/03 12:42:54;;;;;;;29.83;28.13;;;8.00;99.90;;;;;;5097452;28;20481;-82
2022/02/03 12:45:31;;;;;;;34.00;32.20;;;7.90;99.90;;;;;;5096826;28;20496;-83
2022/02/03 12:48:00;;;;;;;26.83;25.17;;;7.90;99.90;;;;;;5097294;28;20949;-83
2022/02/03 12:50:55;;;;;;;27.67;25.97;;;7.90;99.90;;;;;;5097051;28;20453;-82
2022/02/03 12:53:55;;;;;;;22.23;20.70;;;7.80;99.90;;;;;;5092742;28;20461;-83
2022/02/03 12:56:29;;;;;;;19.87;18.50;;;7.90;99.90;;;;;;5091908;28;20548;-83
2022/02/03 12:59:22;;;;;;;23.90;22.40;;;7.90;99.90;;;;;;5096506;28;20520;-82
2022/02/03 13:05:33;;;;;;;14.27;13.07;;;8.00;99.90;;;;;;5095264;28;20470;-83
2022/02/03 13:08:09;;;;;;;12.87;11.83;;;8.00;99.90;;;;;;5092550;28;20454;-82
2022/02/03 13:10:55;;;;;;;10.73;9.70;;;8.00;99.90;;;;;;5096276;28;20475;-81
2022/02/03 13:13:55;;;;;;;11.37;9.83;;;7.90;99.90;;;;;;5096455;28;20457;-82
2022/02/03 13:16:34;;;;;;;9.97;9.10;;;8.10;99.90;;;;;;5096722;28;20488;-82
2022/02/03 13:19:25;;;;;;;10.00;9.00;;;8.10;99.90;;;;;;5096284;28;20461;-82
2022/02/03 13:22:19;;;;;;;10.57;9.50;;;8.10;99.90;;;;;;5095348;28;20949;-82
2022/02/03 13:25:11;;;;;;;12.20;7.70;;;8.20;99.90;;;;;;5096177;28;20516;-83
2022/02/03 13:27:58;;;;;;;10.03;8.97;;;8.10;99.90;;;;;;5096378;28;20499;-82
2022/02/03 13:30:42;;;;;;;11.10;8.50;;;8.00;99.90;;;;;;5095686;28;20511;-84
2022/02/03 13:33:17;;;;;;;9.93;8.10;;;8.00;99.90;;;;;;5096278;28;20449;-82
2022/02/03 13:35:51;;;;;;;8.10;7.40;;;7.90;99.90;;;;;;5096238;28;21069;-83
2022/02/03 13:38:34;;;;;;;9.80;8.80;;;7.90;99.90;;;;;;5095137;28;20484;-82
2022/02/03 13:41:11;;;;;;;10.10;9.00;;;7.90;99.90;;;;;;5096335;28;20450;-82
2022/02/03 13:43:51;;;;;;;10.80;9.77;;;7.90;99.90;;;;;;5096181;28;20532;-83
2022/02/03 13:50:10;;;;;;;11.00;10.07;;;8.10;99.90;;;;;;5094509;28;20830;-83
2022/02/03 13:52:58;;;;;;;10.23;8.67;;;8.10;99.90;;;;;;5095684;28;20866;-83
2022/02/03 14:19:11;;;;;;;;;;;;;;;;;;;;;
2022/02/03 14:28:27;;;;;;;11.30;10.20;;;7.80;99.90;;;;;;5091142;28;20450;-83
2022/02/03 14:31:00;;;;;;;13.43;11.40;;;7.80;99.90;;;;;;5094424;28;20449;-83
2022/02/03 14:33:29;;;;;;;12.60;10.70;;;7.70;99.90;;;;;;5098372;28;20449;-84
2022/02/03 14:36:07;;;;;;;11.90;10.60;;;7.70;99.90;;;;;;5098327;28;20497;-84
2022/02/03 14:38:41;;;;;;;12.50;10.87;;;7.80;99.90;;;;;;5099201;28;20988;-83
2022/02/03 14:41:17;;;;;;;13.90;12.53;;;7.70;99.90;;;;;;5099969;28;20519;-84
2022/02/03 14:43:46;;;;;;;14.23;12.80;;;7.90;99.90;;;;;;5099679;28;20453;-83
2022/02/03 14:46:17;;;;;;;14.67;11.60;;;7.90;99.90;;;;;;5099115;28;20503;-84
2022/02/03 14:48:51;;;;;;;13.77;11.40;;;7.70;99.90;;;;;;5099124;28;20801;-84
2022/02/03 15:00:20;;;;;;;12.63;9.37;;;8.00;99.90;;;;;;5100560;28;20848;-83
2022/02/03 15:03:23;;;;;;;11.63;9.07;;;8.20;99.90;;;;;;5094659;28;20464;-84
2022/02/03 15:06:23;;;;;;;;;;;;;;;;;;;;;
2022/02/03 15:08:58;;;;;;;12.80;8.60;;;8.30;99.60;;;;;;5092835;28;20452;-84
2022/02/03 15:11:54;;;;;;;11.97;8.83;;;8.20;98.90;;;;;;5093273;28;20452;-84
2022/02/03 15:14:37;;;;;;;11.50;10.07;;;8.20;98.70;;;;;;5092868;28;20493;-84
2022/02/03 15:17:21;;;;;;;11.30;9.87;;;8.20;99.40;;;;;;5093753;28;20488;-83
2022/02/03 15:23:41;;;;;;;11.60;9.30;;;8.10;99.20;;;;;;5084459;28;20949;-84
2022/02/03 15:26:41;;;;;;;13.80;11.13;;;8.10;99.30;;;;;;5097782;28;20449;-84
2022/02/03 15:29:12;;;;;;;15.83;10.37;;;8.20;99.50;;;;;;5095150;28;20942;-83
2022/02/03 15:31:54;;;;;;;13.00;8.90;;;8.20;99.00;;;;;;5098329;28;20527;-84
2022/02/03 15:34:49;;;;;;;;;;;;;;;;;;;;;
2022/02/03 15:40:37;;;;;;;11.03;7.90;;;8.30;98.60;;;;;;5089532;28;20985;-84
2022/02/03 15:43:25;;;;;;;11.67;9.27;;;8.30;98.30;;;;;;5054732;28;20525;-84
2022/02/03 15:46:41;;;;;;;15.50;8.93;;;8.10;98.60;;;;;;5053815;28;20467;-84
2022/02/03 16:22:45;;;;;;;17.20;14.87;;;7.60;99.90;;;;;;5099853;28;20982;-84
2022/02/03 16:52:08;;;;;;;68.50;64.80;;;7.40;99.90;;;;;;5114385;28;20427;-83
2022/02/03 16:54:37;;;;;;;70.97;67.33;;;7.30;99.90;;;;;;5114707;28;20462;-82
2022/02/03 16:57:11;;;;;;;59.70;56.57;;;7.10;99.90;;;;;;5114943;28;20448;-81
2022/02/03 16:59:52;;;;;;;76.47;72.60;;;7.30;99.90;;;;;;5112883;28;20475;-82
2022/02/03 17:02:29;;;;;;;;;;;;;;;;;;;;;
2022/02/03 17:05:05;;;;;;;96.80;92.10;;;7.20;99.90;;;;;;5096215;28;20468;-82
2022/02/03 17:07:43;;;;;;;95.73;91.67;;;7.20;99.90;;;;;;5116399;28;20440;-81
2022/02/03 17:10:10;;;;;;;87.60;83.37;;;7.30;99.90;;;;;;5114865;28;20441;-83
2022/02/03 17:12:37;;;;;;;101.43;96.73;;;7.10;99.90;;;;;;5100807;28;20437;-82
2022/02/03 17:15:09;;;;;;;100.20;95.83;;;7.20;99.90;;;;;;5099571;28;20590;-82
2022/02/03 17:17:38;;;;;;;102.27;97.57;;;7.10;99.90;;;;;;5098008;28;20835;-82
2022/02/03 17:20:07;;;;;;;91.77;86.80;;;7.20;99.90;;;;;;5098941;28;20480;-81
2022/02/03 17:22:39;;;;;;;94.97;90.47;;;7.20;99.90;;;;;;5096875;28;20549;-82
2022/02/03 17:25:13;;;;;;;88.57;83.60;;;7.30;99.90;;;;;;5097843;28;20469;-82
2022/02/03 17:27:57;;;;;;;90.37;86.17;;;7.20;99.90;;;;;;5100989;28;20464;-82
2022/02/03 17:30:30;;;;;;;104.27;99.50;;;7.30;99.90;;;;;;5100928;28;20453;-83
2022/02/03 18:03:58;;;;;;;168.07;160.70;;;7.20;99.90;;;;;;5100513;28;20451;-82
2022/02/03 18:06:58;;;;;;;166.23;159.53;;;7.20;99.90;;;;;;5099456;28;20545;-82
2022/02/03 18:09:35;;;;;;;143.07;136.80;;;7.10;99.90;;;;;;5100587;28;20968;-83
2022/02/03 18:17:54;;;;;;;190.30;182.23;;;7.20;99.90;;;;;;5097923;28;20517;-83
2022/02/03 18:26:40;;;;;;;160.67;154.17;;;7.20;99.90;;;;;;5100585;28;20534;-83
2022/02/03 18:32:13;;;;;;;189.53;181.83;;;7.20;99.90;;;;;;5094000;28;20444;-83
2022/02/03 18:37:31;;;;;;;169.47;162.40;;;7.20;99.90;;;;;;5096542;28;20452;-82
2022/02/03 18:51:05;;;;;;;249.50;239.83;;;7.20;99.90;;;;;;5100582;28;20436;-84
2022/02/03 18:53:36;;;;;;;247.90;238.80;;;7.20;99.90;;;;;;5101410;28;20477;-83
2022/02/03 18:56:10;;;;;;;269.83;259.47;;;7.20;99.90;;;;;;5102800;28;20453;-83
2022/02/03 18:58:45;;;;;;;260.13;250.10;;;7.20;99.90;;;;;;5102058;28;20448;-83
2022/02/03 19:01:39;;;;;;;253.83;243.63;;;7.20;99.90;;;;;;5101590;28;20693;-83
2022/02/03 19:24:04;;;;;;;290.50;279.30;;;7.30;99.90;;;;;;5033696;28;20501;-82
2022/02/03 20:05:01;;;;;;;482.43;460.73;;;7.20;99.90;;;;;;5118267;27;20480;-83
2022/02/03 20:07:35;;;;;;;525.63;501.27;;;7.10;99.90;;;;;;5136641;28;20486;-82
2022/02/03 20:10:18;;;;;;;504.80;482.43;;;7.20;99.90;;;;;;5135729;28;20454;-81
2022/02/03 20:12:45;;;;;;;521.63;498.03;;;7.20;99.90;;;;;;5135298;28;20439;-81
2022/02/03 20:15:12;;;;;;;538.13;513.70;;;7.10;99.90;;;;;;5137985;27;20477;-81
2022/02/03 20:17:39;;;;;;;556.10;530.20;;;7.00;99.90;;;;;;5136435;28;20448;-82
2022/02/03 20:20:08;;;;;;;562.43;536.23;;;7.00;99.90;;;;;;5136353;28;20471;-82
2022/02/03 20:22:38;;;;;;;552.87;527.47;;;7.00;99.90;;;;;;5138126;28;20451;-81
2022/02/03 20:25:06;;;;;;;544.97;520.47;;;6.90;99.90;;;;;;5131831;27;20468;-81
2022/02/03 20:27:33;;;;;;;544.37;519.37;;;7.00;99.90;;;;;;5123729;28;20821;-82
2022/02/03 20:30:00;;;;;;;554.57;529.17;;;6.90;99.90;;;;;;5124216;28;20449;-82
2022/02/03 20:32:28;;;;;;;550.47;524.87;;;7.00;99.90;;;;;;5124126;28;20456;-82
2022/02/03 20:34:55;;;;;;;539.37;514.67;;;7.00;99.90;;;;;;5123670;28;20491;-82
2022/02/03 20:37:24;;;;;;;530.70;507.30;;;7.00;99.90;;;;;;5122023;28;20449;-83
2022/02/03 20:39:51;;;;;;;525.47;501.97;;;7.10;99.90;;;;;;5121706;28;20448;-81
2022/02/03 20:42:18;;;;;;;555.40;528.80;;;7.00;99.90;;;;;;5122302;28;20448;-81
2022/02/03 20:44:45;;;;;;;582.57;553.00;;;7.00;99.90;;;;;;5121425;28;20476;-81
2022/02/03 20:47:12;;;;;;;610.27;578.57;;;7.00;99.90;;;;;;5122262;28;20452;-81
2022/02/03 20:49:39;;;;;;;625.13;590.83;;;6.90;99.90;;;;;;5121196;28;20940;-82
2022/02/03 20:52:06;;;;;;;646.47;608.47;;;6.90;99.90;;;;;;5121891;28;20457;-83
2022/02/03 20:54:35;;;;;;;666.90;628.10;;;6.90;99.90;;;;;;5119849;28;20701;-81
2022/02/03 20:57:02;;;;;;;670.20;630.60;;;6.80;99.90;;;;;;5119366;28;20456;-82
2022/02/03 20:59:38;;;;;;;669.93;630.63;;;6.80;99.90;;;;;;5120897;28;20945;-81
2022/02/03 21:02:10;;;;;;;679.60;639.87;;;6.80;99.90;;;;;;5121621;28;20487;-82
2022/02/03 21:04:56;;;;;;;685.73;644.90;;;6.80;99.90;;;;;;5122260;28;20503;-81
2022/02/03 21:07:22;;;;;;;688.10;646.00;;;6.80;99.90;;;;;;5121852;28;20467;-81
2022/02/03 21:09:51;;;;;;;660.93;623.07;;;6.80;99.90;;;;;;5120630;28;20461;-83
2022/02/03 21:12:18;;;;;;;669.00;630.63;;;6.90;99.90;;;;;;5121024;28;20455;-82
2022/02/03 21:14:45;;;;;;;657.77;621.07;;;6.80;99.90;;;;;;5120725;28;20481;-81
2022/02/03 21:17:12;;;;;;;651.10;615.70;;;6.80;99.90;;;;;;5120487;28;20470;-81
2022/02/03 21:19:39;;;;;;;644.27;610.87;;;6.90;99.90;;;;;;5120956;28;20457;-81
2022/02/03 21:22:06;;;;;;;649.77;614.80;;;6.90;99.90;;;;;;5121144;28;20448;-83
2022/02/03 21:24:32;;;;;;;664.73;627.70;;;6.80;99.90;;;;;;5119542;28;20470;-81
2022/02/03 21:27:01;;;;;;;667.87;630.97;;;6.90;99.90;;;;;;5119442;28;20498;-81
2022/02/03 21:29:28;;;;;;;675.37;637.57;;;6.90;99.90;;;;;;5118778;28;20452;-82
2022/02/03 21:31:55;;;;;;;668.13;631.70;;;6.80;99.90;;;;;;5118028;28;20445;-81
2022/02/03 21:34:23;;;;;;;680.90;642.40;;;6.90;99.90;;;;;;5119491;28;20491;-81
2022/02/03 21:36:54;;;;;;;687.77;648.57;;;6.80;99.90;;;;;;5118862;28;20779;-81
2022/02/03 21:39:22;;;;;;;686.90;644.80;;;6.90;99.90;;;;;;5119112;28;20453;-82
2022/02/03 21:41:48;;;;;;;683.60;639.73;;;6.90;99.90;;;;;;5119793;28;20459;-81
2022/02/03 21:44:17;;;;;;;702.03;656.57;;;6.90;99.90;;;;;;5121143;28;20472;-81
2022/02/03 21:46:44;;;;;;;711.37;664.90;;;6.90;99.90;;;;;;5120487;28;20453;-81
2022/02/03 21:49:11;;;;;;;724.30;674.17;;;6.80;99.90;;;;;;5119451;28;20479;-81
2022/02/03 21:51:42;;;;;;;720.13;670.17;;;6.70;99.90;;;;;;5119738;28;20975;-82
2022/02/03 21:54:09;;;;;;;728.60;677.90;;;6.80;99.90;;;;;;5119763;28;20484;-82
2022/02/03 21:56:36;;;;;;;725.80;675.90;;;6.80;99.90;;;;;;5119422;28;20552;-81
2022/02/03 21:59:07;;;;;;;713.33;663.73;;;6.80;99.90;;;;;;5119043;28;20454;-81
2022/02/03 22:01:36;;;;;;;714.53;664.47;;;6.80;99.90;;;;;;5119149;28;20876;-82
2022/02/03 22:04:03;;;;;;;715.67;664.47;;;6.80;99.90;;;;;;5118688;28;20500;-81
2022/02/03 22:06:30;;;;;;;720.20;667.63;;;6.80;99.90;;;;;;5118611;28;20480;-82
2022/02/03 22:08:57;;;;;;;721.40;667.87;;;6.90;99.90;;;;;;5117885;28;20459;-81
2022/02/03 22:11:23;;;;;;;726.70;672.30;;;6.70;99.90;;;;;;5119575;28;20463;-81
2022/02/03 22:13:50;;;;;;;729.87;674.70;;;6.70;99.90;;;;;;5119506;28;20479;-81
2022/02/03 22:16:21;;;;;;;744.00;687.27;;;6.80;99.90;;;;;;5119101;28;20448;-82
2022/02/03 22:18:49;;;;;;;741.20;684.93;;;6.80;99.90;;;;;;5119471;28;20886;-81
2022/02/03 22:21:25;;;;;;;736.13;680.10;;;6.80;99.90;;;;;;5117755;28;20897;-81
2022/02/03 22:24:00;;;;;;;738.60;682.17;;;6.70;99.90;;;;;;5118328;28;20878;-81
2022/02/03 22:46:05;;;;;;;730.80;676.33;;;6.90;99.90;;;;;;5096699;28;20472;-82
2022/02/03 22:48:32;;;;;;;732.77;678.60;;;6.90;99.90;;;;;;5118045;28;20471;-81
2022/02/03 22:51:02;;;;;;;718.87;666.40;;;6.90;99.90;;;;;;5117377;28;20464;-82
2022/02/03 22:53:32;;;;;;;726.73;675.17;;;6.90;99.90;;;;;;5118008;28;20456;-81
2022/02/03 22:56:00;;;;;;;722.53;671.20;;;6.80;99.90;;;;;;5117333;28;20571;-81
2022/02/03 23:01:09;;;;;;;715.47;665.20;;;6.90;99.90;;;;;;5116548;28;20805;-81
2022/02/03 23:03:37;;;;;;;721.40;671.00;;;7.00;99.90;;;;;;5118190;28;20457;-81
2022/02/03 23:06:06;;;;;;;716.40;667.90;;;6.90;99.90;;;;;;5117492;28;20471;-82
2022/02/03 23:08:40;;;;;;;712.00;664.50;;;6.90;99.90;;;;;;5117425;28;20451;-81
2022/02/03 23:11:16;;;;;;;705.97;659.50;;;6.90;99.90;;;;;;5118389;28;20453;-81
2022/02/03 23:16:41;;;;;;;705.43;658.93;;;6.90;99.90;;;;;;5117981;28;20468;-81
2022/02/03 23:19:29;;;;;;;705.97;660.07;;;6.90;99.90;;;;;;5116857;28;20444;-81
2022/02/03 23:22:10;;;;;;;699.20;653.90;;;6.90;99.90;;;;;;5117821;28;20444;-81
2022/02/03 23:24:37;;;;;;;705.10;659.07;;;7.00;99.90;;;;;;5117955;28;20492;-81
2022/02/03 23:27:25;;;;;;;702.23;656.97;;;7.10;99.90;;;;;;5118593;28;20456;-81
2022/02/03 23:29:53;;;;;;;696.57;651.70;;;6.90;99.90;;;;;;5117304;28;20537;-82
2022/02/03 23:32:21;;;;;;;701.97;656.90;;;7.00;99.90;;;;;;5117430;28;20441;-81
2022/02/03 23:34:55;;;;;;;703.17;657.23;;;7.00;99.90;;;;;;5117800;28;20480;-81
2022/02/03 23:37:24;;;;;;;694.10;650.10;;;6.90;99.90;;;;;;5117507;28;20456;-81
2022/02/03 23:39:58;;;;;;;690.97;646.97;;;7.00;99.90;;;;;;5116318;28;21109;-81
2022/02/03 23:43:26;;;;;;;689.63;646.57;;;7.00;99.90;;;;;;5118063;28;20440;-82
2022/02/03 23:45:44;;;;;;;694.67;651.77;;;6.90;99.90;;;;;;5117283;28;20909;-82
